createdAt,value
2023-03-22T00:02:27.478Z,8.52
2023-03-22T00:04:58.421Z,8.32
2023-03-22T00:07:28.166Z,9.52
2023-03-22T00:10:00.383Z,8.40
2023-03-22T00:12:29.961Z,8.65
2023-03-22T00:15:00.172Z,8.00
2023-03-22T00:17:30.625Z,10.48
2023-03-22T00:20:00.250Z,7.25
2023-03-22T00:22:29.823Z,10.63
2023-03-22T00:25:01.977Z,12.43
2023-03-22T00:27:31.743Z,9.98
2023-03-22T00:30:01.327Z,11.80
2023-03-22T00:32:30.920Z,7.88
2023-03-22T00:35:01.904Z,11.25
2023-03-22T00:37:34.187Z,9.13
2023-03-22T00:40:08.875Z,8.63
2023-03-22T00:42:38.566Z,10.50
2023-03-22T00:45:10.583Z,9.07
2023-03-22T00:47:40.310Z,9.98
2023-03-22T00:50:11.193Z,9.98
2023-03-22T00:52:41.019Z,10.45
2023-03-22T00:55:14.147Z,8.77
2023-03-22T00:57:43.755Z,9.10
2023-03-22T01:00:16.187Z,11.38
2023-03-22T01:02:47.707Z,12.88
2023-03-22T01:05:22.672Z,12.25
2023-03-22T01:07:55.208Z,10.65
2023-03-22T01:10:27.332Z,14.50
2023-03-22T01:12:57.026Z,10.75
2023-03-22T01:15:26.604Z,13.40
2023-03-22T01:17:56.247Z,10.73
2023-03-22T01:20:26.030Z,13.43
2023-03-22T01:22:55.794Z,13.38
2023-03-22T01:25:27.973Z,12.15
2023-03-22T01:27:57.540Z,18.65
2023-03-22T01:30:27.259Z,15.32
2023-03-22T01:32:56.924Z,13.48
2023-03-22T01:35:26.552Z,14.18
2023-03-22T01:37:56.619Z,14.65
2023-03-22T01:40:29.385Z,14.05
2023-03-22T01:42:59.869Z,16.92
2023-03-22T01:45:42.992Z,15.10
2023-03-22T01:48:18.169Z,14.10
2023-03-22T01:50:56.124Z,15.88
2023-03-22T01:53:29.808Z,16.33
2023-03-22T01:56:02.323Z,14.88
2023-03-22T01:58:35.655Z,15.10
2023-03-22T02:01:08.415Z,14.57
2023-03-22T02:03:53.303Z,15.13
2023-03-22T02:06:24.025Z,14.30
2023-03-22T02:09:01.162Z,15.65
2023-03-22T02:11:38.573Z,14.65
2023-03-22T02:14:31.165Z,16.20
2023-03-22T02:17:30.461Z,13.48
2023-03-22T02:20:41.912Z,15.07
2023-03-22T02:23:43.102Z,16.05
2023-03-22T02:26:49.605Z,16.27
2023-03-22T02:29:30.032Z,16.65
2023-03-22T02:32:27.872Z,15.65
2023-03-22T02:35:23.244Z,21.05
2023-03-22T02:38:16.987Z,19.45
2023-03-22T02:40:53.150Z,20.83
2023-03-22T02:43:34.325Z,16.02
2023-03-22T02:46:08.474Z,15.05
2023-03-22T02:51:11.272Z,13.75
2023-03-22T02:53:45.592Z,15.82
2023-03-22T02:56:23.060Z,15.45
2023-03-22T02:58:54.679Z,16.80
2023-03-22T03:01:26.593Z,14.82
2023-03-22T03:03:59.918Z,13.20
2023-03-22T03:06:32.811Z,15.80
2023-03-22T03:09:02.768Z,14.05
2023-03-22T03:11:35.261Z,16.67
2023-03-22T03:14:04.889Z,17.25
2023-03-22T03:16:36.949Z,15.23
2023-03-22T03:19:11.829Z,15.63
2023-03-22T03:21:46.891Z,13.77
2023-03-22T03:24:23.578Z,16.23
2023-03-22T03:27:01.672Z,15.05
2023-03-22T03:29:36.117Z,18.45
2023-03-22T03:32:09.941Z,13.02
2023-03-22T03:34:42.536Z,16.65
2023-03-22T03:37:14.913Z,15.02
2023-03-22T03:39:47.103Z,14.73
2023-03-22T03:42:20.103Z,18.48
2023-03-22T03:44:49.716Z,15.35
2023-03-22T03:47:19.339Z,14.15
2023-03-22T03:49:48.965Z,18.30
2023-03-22T03:52:19.162Z,14.18
2023-03-22T03:54:48.712Z,16.05
2023-03-22T03:57:24.893Z,13.63
2023-03-22T03:59:54.721Z,16.73
2023-03-22T04:02:43.312Z,14.48
2023-03-22T04:05:24.675Z,17.77
2023-03-22T04:07:54.415Z,16.25
2023-03-22T04:10:24.101Z,16.38
2023-03-22T04:12:56.300Z,17.23
2023-03-22T04:15:26.029Z,16.50
2023-03-22T04:17:59.169Z,18.23
2023-03-22T04:20:32.114Z,14.02
2023-03-22T04:23:02.836Z,16.50
2023-03-22T04:25:33.975Z,14.23
2023-03-22T04:28:13.696Z,16.55
2023-03-22T04:30:45.851Z,14.88
2023-03-22T04:33:39.363Z,17.08
2023-03-22T04:36:20.417Z,16.15
2023-03-22T04:39:13.921Z,13.43
2023-03-22T04:41:49.045Z,16.10
2023-03-22T04:44:22.792Z,17.50
2023-03-22T04:46:53.693Z,14.75
2023-03-22T04:49:23.442Z,24.42
2023-03-22T04:51:53.144Z,19.02
2023-03-22T04:54:29.532Z,17.48
2023-03-22T04:56:59.156Z,14.65
2023-03-22T04:59:33.528Z,17.73
2023-03-22T05:02:03.191Z,15.27
2023-03-22T05:04:40.720Z,14.30
2023-03-22T05:07:19.107Z,17.88
2023-03-22T05:09:54.527Z,18.48
2023-03-22T05:12:24.612Z,16.38
2023-03-22T05:15:04.300Z,15.48
2023-03-22T05:17:37.574Z,16.17
2023-03-22T05:20:10.363Z,17.15
2023-03-22T05:25:14.047Z,16.10
2023-03-22T05:27:46.978Z,13.63
2023-03-22T05:30:37.860Z,18.08
2023-03-22T05:33:17.003Z,21.30
2023-03-22T05:35:48.891Z,14.05
2023-03-22T05:38:19.307Z,16.63
2023-03-22T05:40:53.074Z,18.75
2023-03-22T05:43:22.866Z,17.33
2023-03-22T05:45:56.215Z,12.25
2023-03-22T05:48:38.370Z,15.43
2023-03-22T05:51:09.568Z,11.07
2023-03-22T05:53:39.547Z,13.77
2023-03-22T05:56:15.230Z,15.98
2023-03-22T05:58:46.974Z,14.07
2023-03-22T06:01:23.223Z,18.13
2023-03-22T06:04:11.537Z,14.07
2023-03-22T06:07:07.184Z,10.40
2023-03-22T06:09:46.092Z,11.50
2023-03-22T06:12:24.811Z,12.57
2023-03-22T06:15:15.451Z,11.70
2023-03-22T06:18:10.772Z,13.68
2023-03-22T06:20:47.133Z,10.77
2023-03-22T06:23:21.524Z,15.10
2023-03-22T06:25:51.972Z,11.65
2023-03-22T06:28:22.138Z,11.50
2023-03-22T06:30:54.155Z,12.93
2023-03-22T06:33:45.889Z,11.80
2023-03-22T06:36:29.683Z,9.98
2023-03-22T06:39:13.666Z,12.38
2023-03-22T06:41:50.558Z,10.60
2023-03-22T06:46:52.791Z,10.52
2023-03-22T06:49:46.749Z,14.75
2023-03-22T06:52:24.526Z,11.25
2023-03-22T06:54:54.972Z,13.48
2023-03-22T06:57:24.596Z,9.55
2023-03-22T06:59:54.194Z,13.85
2023-03-22T07:02:23.899Z,9.02
2023-03-22T07:05:23.627Z,10.88
2023-03-22T07:07:53.440Z,8.63
2023-03-22T07:10:23.033Z,13.27
2023-03-22T07:12:53.175Z,10.63
2023-03-22T07:15:24.664Z,7.88
2023-03-22T07:18:00.726Z,7.82
2023-03-22T07:20:36.856Z,8.77
2023-03-22T07:23:07.070Z,7.60
2023-03-22T07:25:43.417Z,9.18
2023-03-22T07:28:21.258Z,7.53
2023-03-22T07:30:51.069Z,6.57
2023-03-22T07:33:22.379Z,9.38
2023-03-22T07:35:54.850Z,8.82
2023-03-22T07:38:24.601Z,10.68
2023-03-22T07:40:55.961Z,11.77
2023-03-22T07:43:30.124Z,6.43
2023-03-22T07:46:10.844Z,5.68
2023-03-22T07:49:06.834Z,6.05
2023-03-22T07:51:57.276Z,7.60
2023-03-22T07:54:33.926Z,7.32
2023-03-22T07:57:06.759Z,6.30
2023-03-22T07:59:40.263Z,9.93
2023-03-22T08:02:12.389Z,5.03
2023-03-22T08:04:51.840Z,7.47
2023-03-22T08:10:16.486Z,8.53
2023-03-22T08:12:46.508Z,8.32
2023-03-22T08:15:23.594Z,7.25
2023-03-22T08:17:53.379Z,6.85
2023-03-22T08:20:32.575Z,8.27
2023-03-22T08:26:08.458Z,5.57
2023-03-22T08:28:38.062Z,7.53
2023-03-22T08:31:15.141Z,8.05
2023-03-22T08:33:46.715Z,4.60
2023-03-22T08:36:18.508Z,8.18
2023-03-22T08:39:01.589Z,6.00
2023-03-22T08:42:00.226Z,6.78
2023-03-22T08:44:31.013Z,5.65
2023-03-22T08:47:03.059Z,6.45
2023-03-22T08:49:34.127Z,6.60
2023-03-22T08:52:11.945Z,4.03
2023-03-22T08:55:08.657Z,7.22
2023-03-22T08:57:58.924Z,5.18
2023-03-22T09:00:47.617Z,4.03
2023-03-22T09:03:47.255Z,4.90
2023-03-22T09:06:17.104Z,4.15
2023-03-22T09:08:47.111Z,4.20
2023-03-22T09:11:21.584Z,4.40
2023-03-22T09:13:51.647Z,4.43
2023-03-22T09:16:22.162Z,3.80
2023-03-22T09:18:52.750Z,3.45
2023-03-22T09:21:24.509Z,5.80
2023-03-22T09:23:59.290Z,2.90
2023-03-22T09:26:42.309Z,3.85
2023-03-22T09:29:12.701Z,3.72
2023-03-22T09:31:43.517Z,3.58
2023-03-22T09:34:33.423Z,5.38
2023-03-22T09:37:04.238Z,3.22
2023-03-22T09:39:44.699Z,2.40
2023-03-22T09:42:28.308Z,3.95
2023-03-22T09:44:58.952Z,2.90
2023-03-22T09:47:44.264Z,2.65
2023-03-22T09:50:16.863Z,2.30
2023-03-22T09:52:46.680Z,1.95
2023-03-22T09:55:21.397Z,4.22
2023-03-22T09:58:02.523Z,2.40
2023-03-22T10:00:41.246Z,2.53
2023-03-22T10:03:21.494Z,3.08
2023-03-22T10:05:53.550Z,1.63
2023-03-22T10:08:36.681Z,2.50
2023-03-22T10:11:11.357Z,7.10
2023-03-22T10:13:48.549Z,3.95
2023-03-22T10:16:28.858Z,4.35
2023-03-22T10:19:02.548Z,8.63
2023-03-22T10:21:32.298Z,4.65
2023-03-22T10:24:04.377Z,3.65
2023-03-22T10:26:37.555Z,3.67
2023-03-22T10:29:15.007Z,4.53
2023-03-22T10:31:46.964Z,4.47
2023-03-22T10:34:21.976Z,3.30
2023-03-22T10:36:53.764Z,8.50
2023-03-22T10:39:31.587Z,5.82
2023-03-22T10:42:02.884Z,3.83
2023-03-22T10:44:38.970Z,2.97
2023-03-22T10:47:11.397Z,4.50
2023-03-22T10:49:44.824Z,6.15
2023-03-22T10:52:23.830Z,4.65
2023-03-22T10:54:53.428Z,1.95
2023-03-22T10:57:23.001Z,7.63
2023-03-22T10:59:55.921Z,4.25
2023-03-22T11:02:28.200Z,11.35
2023-03-22T11:04:59.912Z,4.63
2023-03-22T11:07:36.079Z,5.05
2023-03-22T11:10:21.943Z,3.65
2023-03-22T11:12:53.715Z,3.90
2023-03-22T11:15:31.129Z,3.03
2023-03-22T11:18:03.609Z,3.80
2023-03-22T11:20:33.390Z,3.25
2023-03-22T11:23:05.321Z,7.65
2023-03-22T11:25:37.725Z,8.85
2023-03-22T11:28:12.914Z,4.50
2023-03-22T11:31:01.041Z,3.75
2023-03-22T11:33:30.920Z,3.10
2023-03-22T11:36:03.426Z,5.57
2023-03-22T11:38:37.865Z,4.03
2023-03-22T11:41:10.064Z,3.83
2023-03-22T11:43:42.321Z,4.40
2023-03-22T11:46:14.913Z,2.45
2023-03-22T11:48:45.696Z,6.85
2023-03-22T11:51:19.973Z,5.25
2023-03-22T11:53:50.973Z,4.93
2023-03-22T11:56:21.906Z,5.82
2023-03-22T11:59:04.152Z,5.38
2023-03-22T12:01:40.804Z,5.65
2023-03-22T12:04:14.380Z,3.55
2023-03-22T12:06:44.727Z,4.78
2023-03-22T12:09:25.643Z,2.60
2023-03-22T12:11:57.326Z,2.92
2023-03-22T12:14:29.956Z,2.20
2023-03-22T12:17:07.722Z,4.28
2023-03-22T12:19:46.272Z,2.83
2023-03-22T12:22:17.531Z,2.90
2023-03-22T12:24:47.121Z,3.60
2023-03-22T12:27:20.783Z,8.55
2023-03-22T12:29:55.702Z,6.13
2023-03-22T12:32:30.580Z,5.55
2023-03-22T12:35:16.106Z,1.95
2023-03-22T12:37:49.450Z,2.97
2023-03-22T12:40:24.387Z,5.63
2023-03-22T12:43:00.939Z,7.25
2023-03-22T12:45:32.347Z,3.67
2023-03-22T12:48:09.942Z,6.03
2023-03-22T12:50:43.121Z,3.03
2023-03-22T12:53:15.817Z,5.97
2023-03-22T12:55:46.356Z,4.20
2023-03-22T12:58:18.144Z,3.90
2023-03-22T13:00:50.610Z,5.13
2023-03-22T13:03:30.042Z,3.75
2023-03-22T13:06:05.151Z,5.55
2023-03-22T13:09:08.904Z,3.40
2023-03-22T13:11:38.752Z,5.75
2023-03-22T13:14:08.320Z,6.65
2023-03-22T13:16:53.397Z,6.90
2023-03-22T13:19:35.839Z,3.97
2023-03-22T13:22:21.742Z,6.28
2023-03-22T13:25:30.733Z,4.72
2023-03-22T13:28:03.234Z,5.80
2023-03-22T13:30:35.203Z,4.13
2023-03-22T13:33:15.803Z,4.60
2023-03-22T13:35:51.112Z,4.28
2023-03-22T13:38:24.498Z,5.03
2023-03-22T13:40:59.427Z,6.10
2023-03-22T13:43:32.889Z,3.78
2023-03-22T13:46:46.169Z,5.32
2023-03-22T13:49:23.248Z,5.07
2023-03-22T13:51:55.970Z,4.25
2023-03-22T13:54:29.697Z,5.90
2023-03-22T13:57:01.498Z,4.47
2023-03-22T13:59:34.064Z,6.35
2023-03-22T14:02:06.647Z,3.75
2023-03-22T14:04:42.554Z,4.15
2023-03-22T14:07:23.945Z,4.53
2023-03-22T14:09:55.898Z,4.60
2023-03-22T14:12:27.660Z,5.22
2023-03-22T14:14:59.139Z,4.40
2023-03-22T14:17:35.719Z,8.55
2023-03-22T14:20:10.394Z,6.80
2023-03-22T14:53:41.748Z,5.10
2023-03-22T14:58:42.791Z,4.05
2023-03-22T15:01:17.523Z,3.75
2023-03-22T15:03:49.845Z,4.35
2023-03-22T15:06:19.590Z,10.43
2023-03-22T15:08:51.902Z,4.75
2023-03-22T15:11:21.948Z,19.08
2023-03-22T15:13:54.052Z,5.80
2023-03-22T15:16:25.045Z,4.28
2023-03-22T15:18:55.087Z,3.40
2023-03-22T15:21:24.754Z,3.00
2023-03-22T15:24:16.524Z,4.93
2023-03-22T15:26:46.212Z,4.70
2023-03-22T15:29:17.111Z,5.85
2023-03-22T15:31:48.926Z,6.32
2023-03-22T15:34:21.912Z,5.93
2023-03-22T15:36:53.845Z,5.88
2023-03-22T15:39:28.219Z,2.15
2023-03-22T15:42:00.007Z,4.05
2023-03-22T15:44:32.443Z,3.80
2023-03-22T15:47:03.738Z,6.55
2023-03-22T15:49:38.650Z,3.75
2023-03-22T15:52:13.036Z,5.10
2023-03-22T15:54:47.871Z,2.70
2023-03-22T15:57:22.788Z,5.45
2023-03-22T15:59:55.468Z,6.38
2023-03-22T16:02:31.082Z,4.40
2023-03-22T16:05:01.447Z,2.00
2023-03-22T16:07:32.701Z,3.75
2023-03-22T16:10:04.992Z,4.38
2023-03-22T16:12:34.724Z,3.60
2023-03-22T16:15:04.344Z,4.85
2023-03-22T16:17:34.047Z,4.70
2023-03-22T16:20:04.469Z,6.55
2023-03-22T16:22:34.399Z,5.20
2023-03-22T16:25:07.252Z,5.60
2023-03-22T16:27:36.970Z,4.30
2023-03-22T16:30:09.076Z,2.78
2023-03-22T16:32:38.709Z,6.90
2023-03-22T16:35:09.696Z,3.45
2023-03-22T16:37:40.429Z,4.13
2023-03-22T16:40:17.443Z,3.85
2023-03-22T16:42:47.364Z,4.25
2023-03-22T16:45:19.706Z,4.25
2023-03-22T16:47:49.556Z,5.30
2023-03-22T16:50:19.358Z,3.33
2023-03-22T16:52:50.704Z,3.83
2023-03-22T16:55:26.173Z,2.90
2023-03-22T16:57:56.191Z,3.03
2023-03-22T17:00:27.314Z,2.53
2023-03-22T17:02:59.080Z,4.47
2023-03-22T17:05:29.996Z,3.53
2023-03-22T17:08:01.059Z,4.68
2023-03-22T17:10:35.300Z,2.53
2023-03-22T17:13:05.284Z,5.18
2023-03-22T17:15:38.371Z,6.72
2023-03-22T17:18:10.133Z,7.73
2023-03-22T17:20:40.793Z,2.35
2023-03-22T17:23:12.269Z,3.17
2023-03-22T17:25:47.651Z,3.67
2023-03-22T17:28:18.348Z,3.45
2023-03-22T17:30:48.265Z,5.93
2023-03-22T17:33:18.798Z,5.40
2023-03-22T17:35:48.659Z,4.43
2023-03-22T17:38:18.644Z,5.88
2023-03-22T17:41:00.194Z,2.85
2023-03-22T17:43:31.782Z,41.65
2023-03-22T17:46:49.786Z,4.03
2023-03-22T17:48:51.053Z,7.10
2023-03-22T17:51:20.809Z,4.32
2023-03-22T17:54:24.139Z,3.63
2023-03-22T17:57:04.958Z,3.40
2023-03-22T17:59:33.197Z,3.95
2023-03-22T18:02:02.964Z,5.95
2023-03-22T18:04:33.023Z,5.55
2023-03-22T18:07:02.681Z,5.75
2023-03-22T18:09:32.388Z,3.45
2023-03-22T18:12:04.633Z,5.93
2023-03-22T18:17:05.507Z,3.75
2023-03-22T18:19:36.872Z,7.65
2023-03-22T18:22:06.562Z,5.63
2023-03-22T18:24:36.712Z,2.88
2023-03-22T18:27:11.516Z,8.15
2023-03-22T18:29:41.283Z,4.75
2023-03-22T18:32:18.542Z,4.05
2023-03-22T18:34:49.612Z,4.13
2023-03-22T18:37:19.415Z,3.08
2023-03-22T18:40:32.549Z,4.50
2023-03-22T18:42:48.439Z,6.55
2023-03-22T18:45:21.135Z,6.90
2023-03-22T18:47:50.857Z,5.72
2023-03-22T18:50:20.598Z,3.97
2023-03-22T18:55:47.621Z,4.63
2023-03-22T18:58:19.116Z,4.50
2023-03-22T19:00:48.743Z,5.47
2023-03-22T19:03:18.481Z,5.05
2023-03-22T19:05:48.141Z,6.43
2023-03-22T19:08:27.222Z,5.05
2023-03-22T19:10:58.019Z,5.00
2023-03-22T19:13:30.360Z,7.03
2023-03-22T19:16:02.246Z,6.25
2023-03-22T19:18:32.936Z,3.50
2023-03-22T19:21:13.164Z,5.07
2023-03-22T19:23:47.362Z,5.25
2023-03-22T19:26:17.118Z,7.43
2023-03-22T19:31:19.934Z,5.83
2023-03-22T19:33:56.148Z,4.05
2023-03-22T19:36:27.701Z,5.50
2023-03-22T19:38:59.236Z,3.83
2023-03-22T19:41:50.995Z,4.88
2023-03-22T19:44:22.637Z,5.00
2023-03-22T19:46:54.923Z,6.68
2023-03-22T19:49:26.548Z,7.38
2023-03-22T19:52:00.009Z,5.97
2023-03-22T19:54:39.445Z,4.95
2023-03-22T19:57:14.826Z,5.93
2023-03-22T20:00:11.852Z,5.95
2023-03-22T20:02:38.756Z,5.97
2023-03-22T20:05:16.959Z,7.88
2023-03-22T20:07:47.697Z,5.55
2023-03-22T20:10:17.378Z,5.38
2023-03-22T20:12:47.049Z,6.55
2023-03-22T20:15:19.492Z,7.22
2023-03-22T20:17:49.202Z,8.23
2023-03-22T20:20:19.266Z,7.82
2023-03-22T20:22:50.999Z,5.75
2023-03-22T20:25:21.508Z,6.72
2023-03-22T20:27:52.866Z,4.78
2023-03-22T20:30:27.327Z,4.10
2023-03-22T20:32:56.983Z,6.80
2023-03-22T20:35:26.643Z,5.00
2023-03-22T20:37:56.353Z,8.18
2023-03-22T20:40:26.626Z,4.30
2023-03-22T20:42:56.387Z,3.53
2023-03-22T20:45:28.926Z,4.30
2023-03-22T20:47:58.594Z,6.22
2023-03-22T20:50:28.378Z,6.65
2023-03-22T20:52:58.027Z,5.25
2023-03-22T20:55:27.958Z,5.78
2023-03-22T20:57:58.162Z,7.90
2023-03-22T21:00:30.429Z,4.07
2023-03-22T21:03:00.120Z,6.45
2023-03-22T21:05:29.840Z,7.47
2023-03-22T21:07:59.607Z,6.22
2023-03-22T21:10:29.393Z,8.32
2023-03-22T21:12:59.121Z,9.55
2023-03-22T21:15:32.054Z,6.72
2023-03-22T21:18:01.848Z,5.55
2023-03-22T21:20:32.810Z,9.32
2023-03-22T21:23:02.678Z,8.20
2023-03-22T21:25:32.345Z,7.32
2023-03-22T21:28:01.987Z,7.03
2023-03-22T21:30:34.223Z,10.45
2023-03-22T21:33:04.151Z,10.27
2023-03-22T21:35:34.963Z,7.93
2023-03-22T21:38:10.008Z,7.50
2023-03-22T21:40:40.711Z,4.85
2023-03-22T21:43:10.728Z,9.68
2023-03-22T21:45:42.960Z,5.68
2023-03-22T21:48:14.060Z,6.60
2023-03-22T21:50:45.534Z,7.05
2023-03-22T21:53:15.775Z,8.48
2023-03-22T21:55:46.762Z,6.95
2023-03-22T21:58:17.198Z,7.70
2023-03-22T22:00:50.705Z,8.52
2023-03-22T22:03:20.727Z,7.97
2023-03-22T22:05:51.307Z,6.50
2023-03-22T22:08:21.715Z,7.57
2023-03-22T22:10:56.053Z,9.27
2023-03-22T22:13:26.444Z,6.35
2023-03-22T22:16:03.333Z,5.32
2023-03-22T22:18:35.682Z,9.45
2023-03-22T22:21:09.013Z,5.03
2023-03-22T22:23:41.373Z,8.05
2023-03-22T22:26:12.347Z,5.63
2023-03-22T22:28:43.277Z,5.72
2023-03-22T22:31:18.594Z,5.05
2023-03-22T22:33:48.461Z,5.57
2023-03-22T22:36:18.118Z,4.03
2023-03-22T22:38:48.101Z,5.28
2023-03-22T22:41:19.207Z,4.13
2023-03-22T22:43:48.836Z,3.35
2023-03-22T22:46:21.239Z,4.70
2023-03-22T22:48:50.985Z,8.57
2023-03-22T22:51:22.519Z,3.17
2023-03-22T22:53:52.700Z,3.55
2023-03-22T22:56:23.129Z,4.28
2023-03-22T22:58:53.327Z,5.35
2023-03-22T23:01:26.353Z,5.65
2023-03-22T23:03:56.153Z,4.28
2023-03-22T23:06:26.359Z,5.28
2023-03-22T23:09:01.810Z,4.35
2023-03-22T23:11:33.013Z,4.75
2023-03-22T23:14:06.117Z,3.40
2023-03-22T23:16:39.128Z,5.13
2023-03-22T23:19:09.688Z,3.47
2023-03-22T23:21:41.766Z,6.38
2023-03-22T23:24:14.544Z,4.68
2023-03-22T23:26:47.965Z,6.65
2023-03-22T23:29:17.966Z,7.63
2023-03-22T23:31:51.012Z,4.25
2023-03-22T23:34:21.338Z,3.70
2023-03-22T23:36:52.282Z,6.35
2023-03-22T23:39:24.198Z,5.47
2023-03-22T23:41:54.595Z,4.90
2023-03-22T23:44:24.278Z,3.72
2023-03-22T23:46:56.619Z,3.15
2023-03-22T23:49:26.538Z,3.95
2023-03-22T23:51:56.499Z,3.42
2023-03-22T23:54:26.300Z,4.45
2023-03-22T23:56:56.031Z,3.70
2023-03-22T23:59:25.927Z,3.47
